Bujumbura, Burundi
Current Conditions -  °F | °C
As of 8:00 AM on Saturday 25 Oct 2014 (Local Time) from HRYR Reporting Station
Scattered Clouds Scattered Clouds  
Wind Chill: 70°   Ceiling: Unl
Heat Index: 70°   Visibility: 5mi
Dew Point: 66°   Wind: 3mph
Humidity: 88%   Direction: 290°WNW
Pressure: 30.15"   Gusts: NA
Location:  3.37°S, 29.35°E
Report Text: HRYR 250600Z 29003KT 8000 FEW020 SCT300 21/19 Q1021 NOSIG
Loading
Personal Weather Stations






























Interactive Weather Map
Tropical Storm Tracking
New forecast layout! Learn more

10-Day Weather Forecast

Advertisements
Track Severe Weather on mobile